Time;durP1;ratioP1;P1;durP2;ratioP2;P2;SDS_P1;SDS_P2;PMS_P1;PMS_P2;Temp;Humidity;BMP_temperature;BMP_pressure;BME280_temperature;BME280_humidity;BME280_pressure;Samples;Min_cycle;Max_cycle;Signal;HPM_P1;HPM_P2
2022/03/19 00:01:59;;;;;;;20.75;10.27;;;;;;;8.55;92.40;104030.47;5088998;28;20132;-74
2022/03/19 00:04:26;;;;;;;23.80;10.20;;;;;;;8.56;92.95;104023.81;5085771;28;20095;-74
2022/03/19 00:06:52;;;;;;;21.63;10.40;;;;;;;8.49;92.92;104017.88;5082631;28;20147;-74
2022/03/19 00:09:19;;;;;;;20.10;8.93;;;;;;;8.51;93.18;104021.16;5093485;28;20115;-75
2022/03/19 00:11:45;;;;;;;22.52;10.43;;;;;;;8.51;93.05;104021.16;5090781;28;20440;-74
2022/03/19 00:14:14;;;;;;;21.98;10.45;;;;;;;8.46;92.84;104024.81;5088464;28;20048;-74
2022/03/19 00:16:41;;;;;;;24.38;11.13;;;;;;;8.43;93.12;104022.66;5088412;28;20052;-73
2022/03/19 00:19:08;;;;;;;24.40;10.50;;;;;;;8.40;93.25;104020.50;5088705;28;20504;-75
2022/03/19 00:21:37;;;;;;;19.98;10.88;;;;;;;8.35;94.25;104028.91;5092929;28;20126;-76
2022/03/19 00:24:04;;;;;;;24.15;11.80;;;;;;;8.34;94.37;104020.91;5094747;28;20506;-75
2022/03/19 00:26:33;;;;;;;22.90;9.27;;;;;;;8.32;95.36;104020.38;5090326;28;20051;-74
2022/03/19 00:29:00;;;;;;;20.75;9.70;;;;;;;8.32;95.52;104018.47;5086253;28;20052;-74
2022/03/19 00:31:26;;;;;;;23.10;10.48;;;;;;;8.31;95.64;104014.06;5098594;28;20055;-74
2022/03/19 00:33:53;;;;;;;23.73;10.05;;;;;;;8.28;95.82;104017.44;5088355;28;20047;-74
2022/03/19 00:36:19;;;;;;;17.63;10.15;;;;;;;8.24;95.75;104010.88;5091281;28;20043;-73
2022/03/19 00:38:46;;;;;;;23.75;11.70;;;;;;;8.23;95.89;104008.44;5093262;28;20502;-74
2022/03/19 00:41:13;;;;;;;24.35;9.73;;;;;;;8.22;95.54;104012.28;5091762;28;20044;-75
2022/03/19 00:43:41;;;;;;;23.20;10.23;;;;;;;8.18;96.12;104012.06;5086136;28;20052;-76
2022/03/19 00:46:07;;;;;;;22.67;10.02;;;;;;;8.19;96.60;104008.16;5085874;28;20560;-74
2022/03/19 00:48:34;;;;;;;28.75;11.02;;;;;;;8.18;96.69;104013.97;5088518;28;20517;-75
2022/03/19 00:51:00;;;;;;;22.27;10.15;;;;;;;8.12;96.94;104007.72;5087792;28;20147;-75
2022/03/19 00:53:27;;;;;;;27.40;10.70;;;;;;;8.13;97.34;104009.38;5096070;28;20105;-73
2022/03/19 00:55:53;;;;;;;19.60;10.10;;;;;;;8.10;96.95;104004.44;5091584;28;20416;-74
2022/03/19 00:58:20;;;;;;;23.92;10.77;;;;;;;8.09;97.26;104004.78;5088312;28;20090;-75
2022/03/19 01:00:46;;;;;;;22.50;10.45;;;;;;;8.06;96.75;104010.91;5088141;28;20079;-75
2022/03/19 01:03:15;;;;;;;28.23;10.80;;;;;;;8.03;96.62;104015.88;5083542;28;20124;-74
2022/03/19 01:05:42;;;;;;;24.80;11.63;;;;;;;8.00;96.59;104019.25;5081420;28;20650;-74
2022/03/19 01:08:11;;;;;;;21.63;9.82;;;;;;;7.97;96.73;104010.75;5088210;28;20138;-74
2022/03/19 01:10:38;;;;;;;26.23;11.10;;;;;;;7.92;97.26;104005.31;5088574;28;20083;-73
2022/03/19 01:13:06;;;;;;;24.55;11.82;;;;;;;7.91;97.32;104000.94;5088591;28;20044;-74
2022/03/19 01:15:33;;;;;;;21.85;11.40;;;;;;;7.86;97.34;104004.56;5088028;28;20078;-74
2022/03/19 01:18:03;;;;;;;23.30;10.68;;;;;;;7.84;97.86;104009.56;5093295;28;20126;-75
2022/03/19 01:20:30;;;;;;;22.25;10.95;;;;;;;7.84;98.18;104003.25;5086365;28;20067;-74
2022/03/19 01:22:56;;;;;;;24.48;11.10;;;;;;;7.77;98.60;104006.38;5087619;28;20155;-74
2022/03/19 01:25:23;;;;;;;24.92;11.30;;;;;;;7.71;98.51;103998.47;5087891;28;20059;-76
2022/03/19 01:27:50;;;;;;;23.58;10.73;;;;;;;7.73;99.30;104001.78;5093331;28;20435;-75
2022/03/19 01:30:21;;;;;;;21.50;11.00;;;;;;;7.71;99.81;103992.97;5086878;28;20051;-74
2022/03/19 01:32:48;;;;;;;24.90;11.07;;;;;;;7.66;100.00;103982.84;5079235;28;20533;-76
2022/03/19 01:35:17;;;;;;;25.45;11.30;;;;;;;7.69;99.83;103992.44;5087313;28;20564;-73
2022/03/19 01:37:45;;;;;;;25.55;10.60;;;;;;;7.66;99.95;103993.03;5091273;28;20055;-76
2022/03/19 01:40:12;;;;;;;24.95;11.02;;;;;;;7.62;99.94;103986.47;5074138;28;20052;-73
2022/03/19 01:42:42;;;;;;;24.00;11.32;;;;;;;7.56;100.00;103985.75;5075504;28;20144;-74
2022/03/19 01:45:11;;;;;;;20.95;10.55;;;;;;;7.53;100.00;103983.59;5087227;28;20109;-74
2022/03/19 01:47:38;;;;;;;22.98;10.65;;;;;;;7.51;100.00;103979.50;5090156;28;20083;-74
2022/03/19 01:50:06;;;;;;;22.95;11.07;;;;;;;7.48;100.00;103985.59;5087128;28;20105;-76
2022/03/19 01:52:32;;;;;;;24.98;11.40;;;;;;;7.44;100.00;103982.63;5087493;28;20076;-77
2022/03/19 01:54:59;;;;;;;23.25;11.95;;;;;;;7.39;100.00;103982.69;5085050;28;20565;-74
2022/03/19 01:57:33;;;;;;;24.33;10.80;;;;;;;7.36;100.00;103993.50;5088427;28;20083;-74
2022/03/19 02:00:01;;;;;;;25.90;11.75;;;;;;;7.33;100.00;103989.38;5088598;28;20135;-73
2022/03/19 02:02:28;;;;;;;25.63;10.98;;;;;;;7.34;100.00;103981.94;5089641;28;20047;-74
2022/03/19 02:04:55;;;;;;;21.88;11.88;;;;;;;7.33;100.00;103981.13;5087478;28;20067;-73
2022/03/19 02:07:21;;;;;;;21.83;11.13;;;;;;;7.28;100.00;103972.09;5095631;28;20048;-75
2022/03/19 02:09:48;;;;;;;21.25;10.65;;;;;;;7.26;100.00;103975.16;5091241;28;20048;-76
2022/03/19 02:12:15;;;;;;;25.98;11.30;;;;;;;7.25;100.00;103975.44;5073759;28;20040;-73
2022/03/19 02:14:41;;;;;;;24.17;12.00;;;;;;;7.20;100.00;103973.63;5087188;28;20079;-75
2022/03/19 02:17:11;;;;;;;26.02;11.80;;;;;;;7.19;100.00;103976.66;5086398;28;20090;-74
2022/03/19 02:19:53;;;;;;;23.67;11.32;;;;;;;7.17;100.00;103967.88;5086707;28;20047;-74
2022/03/19 02:22:21;;;;;;;22.05;10.93;;;;;;;7.18;100.00;103975.00;5073366;28;20111;-74
2022/03/19 02:27:35;;;;;;;24.08;10.88;;;;;;;7.14;100.00;103969.28;5086215;28;20170;-74
2022/03/19 02:30:05;;;;;;;21.77;10.90;;;;;;;7.13;100.00;103973.13;5091330;28;20051;-74
2022/03/19 02:32:31;;;;;;;26.55;12.18;;;;;;;7.11;100.00;103964.38;5086282;28;20054;-74
2022/03/19 02:34:58;;;;;;;23.67;10.32;;;;;;;7.08;100.00;103961.38;5087522;28;20091;-73
2022/03/19 02:37:25;;;;;;;25.75;12.05;;;;;;;7.04;100.00;103960.31;5086180;28;20117;-73
2022/03/19 02:39:52;;;;;;;23.23;11.18;;;;;;;7.04;100.00;103954.81;5086510;28;20066;-74
2022/03/19 02:42:20;;;;;;;22.15;11.45;;;;;;;7.01;100.00;103950.72;5087404;28;20048;-75
2022/03/19 02:44:48;;;;;;;22.02;11.50;;;;;;;6.99;100.00;103952.94;5086882;28;20118;-78
2022/03/19 02:47:15;;;;;;;23.30;11.25;;;;;;;6.96;100.00;103961.00;5089827;28;20068;-74
2022/03/19 02:49:41;;;;;;;22.42;11.55;;;;;;;6.95;100.00;103956.59;5091064;28;20051;-75
2022/03/19 02:52:08;;;;;;;21.90;10.57;;;;;;;6.94;100.00;103952.19;5090311;28;20076;-74
2022/03/19 02:54:35;;;;;;;24.45;11.52;;;;;;;6.93;100.00;103948.63;5088352;28;20819;-76
2022/03/19 02:57:02;;;;;;;21.58;10.77;;;;;;;6.93;100.00;103945.06;5091470;28;20163;-75
2022/03/19 02:59:33;;;;;;;20.17;10.55;;;;;;;6.92;100.00;103941.47;5087615;28;20119;-75
2022/03/19 03:02:04;;;;;;;26.75;11.27;;;;;;;6.89;100.00;103935.75;5091456;28;20131;-75
2022/03/19 03:04:32;;;;;;;21.40;11.45;;;;;;;6.84;100.00;103936.63;5089679;28;20090;-75
2022/03/19 03:07:02;;;;;;;27.10;12.18;;;;;;;6.86;100.00;103942.69;5090344;28;20558;-74
2022/03/19 03:09:30;;;;;;;23.98;11.38;;;;;;;6.84;100.00;103953.16;5090402;28;20044;-74
2022/03/19 03:11:58;;;;;;;26.30;11.20;;;;;;;6.81;100.00;103936.38;5089653;28;20052;-76
2022/03/19 03:14:25;;;;;;;21.60;11.90;;;;;;;6.79;100.00;103938.63;5090424;28;20497;-74
2022/03/19 03:16:53;;;;;;;22.85;11.65;;;;;;;6.79;100.00;103947.69;5089619;28;20058;-74
2022/03/19 03:19:20;;;;;;;23.50;11.23;;;;;;;6.77;100.00;103938.94;5089939;28;20491;-75
2022/03/19 03:21:47;;;;;;;23.33;11.52;;;;;;;6.81;100.00;103933.63;5089892;28;20455;-73
2022/03/19 03:24:14;;;;;;;21.23;10.55;;;;;;;6.77;100.00;103935.34;5089955;28;20071;-76
2022/03/19 03:26:43;;;;;;;26.05;11.70;;;;;;;6.72;100.00;103938.19;5089956;28;20047;-73
2022/03/19 03:29:10;;;;;;;21.65;10.82;;;;;;;6.70;100.00;103932.97;5082828;28;20650;-73
2022/03/19 03:31:37;;;;;;;27.52;11.52;;;;;;;6.69;100.00;103947.00;5087222;28;20142;-73
2022/03/19 03:34:04;;;;;;;22.08;11.60;;;;;;;6.66;100.00;103936.59;5090315;28;20056;-74
2022/03/19 03:36:31;;;;;;;24.30;11.98;;;;;;;6.60;100.00;103935.84;5089806;28;20135;-73
2022/03/19 03:38:58;;;;;;;24.40;11.88;;;;;;;6.56;100.00;103932.03;5089097;28;20079;-72
2022/03/19 03:41:24;;;;;;;24.00;11.45;;;;;;;6.54;100.00;103933.41;5087729;28;20132;-75
2022/03/19 03:43:51;;;;;;;22.95;11.32;;;;;;;6.52;100.00;103930.97;5089329;28;20523;-73
2022/03/19 03:46:18;;;;;;;23.88;11.27;;;;;;;6.47;100.00;103927.44;5089068;28;20058;-72
2022/03/19 03:48:44;;;;;;;28.27;11.57;;;;;;;6.46;100.00;103931.31;5089558;28;20052;-73
2022/03/19 03:51:12;;;;;;;24.98;13.18;;;;;;;6.40;100.00;103921.47;5088775;28;20127;-75
2022/03/19 03:53:40;;;;;;;24.63;11.60;;;;;;;6.40;100.00;103926.97;5088655;28;20461;-73
2022/03/19 03:56:09;;;;;;;25.92;12.63;;;;;;;6.39;100.00;103919.84;5089499;28;20138;-74
2022/03/19 03:58:36;;;;;;;27.65;12.60;;;;;;;6.36;100.00;103918.50;5088557;28;20148;-76
2022/03/19 04:01:03;;;;;;;29.80;13.40;;;;;;;6.35;100.00;103924.28;5088012;28;20140;-73
2022/03/19 04:03:30;;;;;;;24.30;12.20;;;;;;;6.31;100.00;103909.50;5089108;28;20412;-74
2022/03/19 04:05:56;;;;;;;25.10;13.05;;;;;;;6.31;100.00;103917.75;5088928;28;20056;-75
2022/03/19 04:08:22;;;;;;;23.95;12.48;;;;;;;6.27;100.00;103920.25;5089758;28;20152;-74
2022/03/19 04:10:49;;;;;;;25.40;11.85;;;;;;;6.25;100.00;103911.47;5087599;28;20047;-75
2022/03/19 04:13:16;;;;;;;23.70;11.85;;;;;;;6.19;100.00;103907.13;5089204;28;20054;-75
2022/03/19 04:15:43;;;;;;;23.90;12.95;;;;;;;6.17;100.00;103905.81;5089342;28;20067;-74
2022/03/19 04:18:13;;;;;;;21.70;11.65;;;;;;;6.09;100.00;103909.16;5087806;28;20100;-74
2022/03/19 04:20:40;;;;;;;23.65;12.10;;;;;;;6.07;100.00;103908.66;5088905;28;20051;-74
2022/03/19 04:23:07;;;;;;;29.33;11.93;;;;;;;6.01;100.00;103918.06;5088803;28;20134;-74
2022/03/19 04:25:33;;;;;;;23.13;12.02;;;;;;;5.97;100.00;103912.28;5088306;28;20058;-74
2022/03/19 04:28:01;;;;;;;27.23;13.75;;;;;;;5.93;100.00;103916.75;5088589;28;20128;-73
2022/03/19 04:30:28;;;;;;;21.88;11.48;;;;;;;5.91;100.00;103918.16;5088344;28;20218;-75
2022/03/19 04:32:58;;;;;;;23.80;11.50;;;;;;;5.91;100.00;103916.22;5087175;28;20128;-73
2022/03/19 04:38:17;;;;;;;28.98;12.80;;;;;;;5.88;100.00;103915.97;5083727;28;20052;-74
2022/03/19 04:40:45;;;;;;;27.15;11.55;;;;;;;5.89;100.00;103914.84;5088421;28;20051;-73
2022/03/19 04:43:12;;;;;;;23.63;12.15;;;;;;;5.86;100.00;103909.94;5087758;28;20459;-73
2022/03/19 04:45:40;;;;;;;23.88;12.25;;;;;;;5.88;100.00;103913.22;5088787;28;20135;-75
2022/03/19 04:48:07;;;;;;;26.77;11.52;;;;;;;5.88;100.00;103907.72;5087551;28;20131;-73
2022/03/19 04:50:42;;;;;;;24.10;12.93;;;;;;;5.86;100.00;103908.00;5087864;28;20570;-73
2022/03/19 04:53:10;;;;;;;25.85;13.05;;;;;;;5.88;100.00;103907.72;5085497;28;20127;-76
2022/03/19 04:55:38;;;;;;;28.55;11.77;;;;;;;5.88;100.00;103907.72;5087555;28;20052;-74
2022/03/19 04:58:06;;;;;;;32.10;13.05;;;;;;;5.84;100.00;103892.94;5085979;28;20070;-73
2022/03/19 05:00:33;;;;;;;25.73;12.13;;;;;;;5.92;100.00;103903.28;5087576;28;20055;-74
2022/03/19 05:03:06;;;;;;;24.35;12.38;;;;;;;5.93;100.00;103907.66;5087979;28;20043;-74
2022/03/19 05:05:33;;;;;;;26.98;12.50;;;;;;;5.95;100.00;103910.94;5087773;28;20142;-74
2022/03/19 05:08:00;;;;;;;30.50;13.15;;;;;;;5.93;100.00;103905.75;5085922;28;20110;-73
2022/03/19 05:13:12;;;;;;;26.60;12.35;;;;;;;5.96;100.00;103912.59;5088033;28;20733;-75
2022/03/19 05:15:38;;;;;;;25.10;13.35;;;;;;;5.97;100.00;103917.00;5087587;28;20078;-75
2022/03/19 05:18:05;;;;;;;27.42;13.00;;;;;;;5.90;100.00;103911.81;5088879;28;20090;-74
2022/03/19 05:20:34;;;;;;;28.42;13.10;;;;;;;5.97;100.00;103922.50;5087889;28;20055;-74
2022/03/19 05:23:05;;;;;;;26.20;12.40;;;;;;;5.93;100.00;103914.00;5086352;28;20086;-74
2022/03/19 05:25:32;;;;;;;24.90;12.48;;;;;;;5.94;100.00;103914.81;5086925;28;20143;-75
2022/03/19 05:27:58;;;;;;;26.17;12.55;;;;;;;5.95;100.00;103921.94;5088000;28;20519;-73
2022/03/19 05:30:25;;;;;;;31.30;13.20;;;;;;;5.95;100.00;103921.94;5088595;28;20044;-74
2022/03/19 05:32:52;;;;;;;26.38;12.40;;;;;;;5.89;100.00;103917.59;5096845;28;20054;-74
2022/03/19 05:35:21;;;;;;;28.55;12.48;;;;;;;5.89;100.00;103920.34;5087556;28;20051;-76
2022/03/19 05:37:48;;;;;;;25.80;12.27;;;;;;;5.91;100.00;103921.72;5087651;28;20052;-73
2022/03/19 05:40:15;;;;;;;28.20;12.82;;;;;;;5.91;100.00;103923.66;5086540;28;20692;-75
2022/03/19 05:42:42;;;;;;;25.00;12.60;;;;;;;5.90;100.00;103925.56;5086105;28;20475;-74
2022/03/19 05:45:14;;;;;;;28.55;14.05;;;;;;;5.86;100.00;103923.66;5095315;28;20084;-75
2022/03/19 05:47:42;;;;;;;29.25;12.63;;;;;;;5.81;100.00;103920.94;5091291;28;20079;-76
2022/03/19 05:50:09;;;;;;;27.25;13.18;;;;;;;5.81;100.00;103924.56;5085479;28;20044;-76
2022/03/19 05:52:36;;;;;;;26.98;12.00;;;;;;;5.82;100.00;103925.34;5087387;28;20052;-74
2022/03/19 05:55:04;;;;;;;25.35;12.63;;;;;;;5.85;100.00;103933.88;5087532;28;20047;-74
2022/03/19 05:57:31;;;;;;;24.90;12.45;;;;;;;5.84;100.00;103925.91;5086330;28;20163;-74
2022/03/19 05:59:57;;;;;;;23.20;10.63;;;;;;;5.89;100.00;103936.84;5088084;28;20515;-75
2022/03/19 06:02:24;;;;;;;29.42;11.90;;;;;;;5.92;100.00;103928.03;5086384;28;20405;-75
2022/03/19 06:04:52;;;;;;;23.25;10.02;;;;;;;5.90;100.00;103936.56;5087152;28;20532;-74
2022/03/19 06:07:19;;;;;;;24.77;10.15;;;;;;;5.94;100.00;103926.63;5087372;28;20071;-74
2022/03/19 06:09:45;;;;;;;28.95;12.23;;;;;;;5.98;100.00;103930.44;5086823;28;20052;-74
2022/03/19 06:12:11;;;;;;;20.05;8.52;;;;;;;6.03;100.00;103935.88;5086058;28;20075;-74
2022/03/19 06:14:38;;;;;;;24.73;10.45;;;;;;;6.08;100.00;103930.34;5087445;28;20059;-76
2022/03/19 06:17:05;;;;;;;20.33;9.68;;;;;;;6.14;100.00;103937.41;5087047;28;20048;-75
2022/03/19 06:19:32;;;;;;;21.45;9.20;;;;;;;6.16;100.00;103932.47;5088396;28;20168;-74
2022/03/19 06:21:59;;;;;;;26.90;9.63;;;;;;;6.18;100.00;103929.44;5090805;28;20052;-75
2022/03/19 06:24:25;;;;;;;26.58;11.43;;;;;;;6.23;100.00;103937.59;5090655;28;20135;-75
2022/03/19 06:26:52;;;;;;;21.05;8.38;;;;;;;6.24;100.00;103937.31;5090029;28;20062;-76
2022/03/19 06:29:18;;;;;;;20.92;9.60;;;;;;;6.28;100.00;103943.06;5090703;28;20131;-75
2022/03/19 06:31:45;;;;;;;21.52;8.52;;;;;;;6.28;100.00;103935.63;5090772;28;20388;-74
2022/03/19 06:34:11;;;;;;;21.10;10.57;;;;;;;6.33;100.00;103941.09;5090166;28;20048;-77
2022/03/19 06:39:24;;;;;;;26.98;10.65;;;;;;;6.35;100.00;103940.81;5094591;28;20058;-73
2022/03/19 06:41:50;;;;;;;17.30;8.25;;;;;;;6.39;100.00;103939.94;5089332;28;20875;-73
2022/03/19 06:44:17;;;;;;;22.27;10.10;;;;;;;6.41;100.00;103950.66;5089791;28;20043;-73
2022/03/19 06:46:43;;;;;;;28.55;9.70;;;;;;;6.43;100.00;103952.00;5091734;28;20658;-74
2022/03/19 06:49:10;;;;;;;23.30;8.90;;;;;;;6.45;100.00;103943.44;5090305;28;20419;-72
2022/03/19 06:51:36;;;;;;;25.88;9.20;;;;;;;6.50;100.00;103946.13;5090754;28;20087;-73
2022/03/19 06:54:04;;;;;;;21.45;9.10;;;;;;;6.54;100.00;103941.66;5101574;28;20448;-73
2022/03/19 06:56:31;;;;;;;20.50;8.45;;;;;;;6.54;100.00;103942.50;5091247;28;20051;-73
2022/03/19 06:58:58;;;;;;;19.80;8.00;;;;;;;6.60;100.00;103946.00;5089235;28;20341;-73
2022/03/19 07:01:24;;;;;;;23.30;8.30;;;;;;;6.61;100.00;103942.97;5088284;28;20044;-73
2022/03/19 07:03:51;;;;;;;19.15;7.45;;;;;;;6.61;100.00;103928.41;5088373;28;20055;-73
2022/03/19 07:06:18;;;;;;;29.38;9.98;;;;;;;6.70;100.00;103940.38;5088595;28;20048;-73
2022/03/19 07:09:06;;;;;;;20.80;7.45;;;;;;;6.74;100.00;103924.91;5087743;28;20044;-74
2022/03/19 07:11:35;;;;;;;13.93;4.10;;;;;;;6.78;100.00;103935.06;5091497;28;20055;-74
2022/03/19 07:14:05;;;;;;;19.02;7.95;;;;;;;6.83;100.00;103929.50;5090975;28;20046;-74
2022/03/19 07:16:31;;;;;;;20.50;8.55;;;;;;;6.88;100.00;103923.91;5093444;28;20048;-75
2022/03/19 07:18:59;;;;;;;19.10;8.43;;;;;;;6.95;100.00;103934.59;5094447;28;20062;-74
2022/03/19 07:21:25;;;;;;;15.10;6.05;;;;;;;7.00;100.00;103929.00;5091313;28;20124;-74
2022/03/19 07:23:52;;;;;;;22.20;8.98;;;;;;;7.05;100.00;103926.97;5092361;28;20629;-75
2022/03/19 07:26:19;;;;;;;27.35;9.73;;;;;;;7.14;100.00;103927.13;5096375;28;20135;-74
2022/03/19 07:28:46;;;;;;;29.65;10.23;;;;;;;7.18;100.00;103925.44;5095164;28;20048;-74
2022/03/19 07:31:12;;;;;;;27.13;10.20;;;;;;;7.20;100.00;103918.53;5088863;28;20131;-74
2022/03/19 07:33:39;;;;;;;27.02;8.95;;;;;;;7.30;100.00;103928.56;5083439;28;20055;-75
2022/03/19 07:36:06;;;;;;;26.95;10.88;;;;;;;7.37;100.00;103926.25;5085784;28;20499;-75
2022/03/19 07:38:32;;;;;;;29.88;10.63;;;;;;;7.43;100.00;103923.09;5088937;28;20075;-75
2022/03/19 07:43:44;;;;;;;29.92;11.68;;;;;;;7.57;100.00;103918.47;5087446;28;20044;-74
2022/03/19 07:46:11;;;;;;;30.92;12.77;;;;;;;7.63;100.00;103922.00;5087828;28;20155;-74
2022/03/19 07:48:38;;;;;;;26.27;10.55;;;;;;;7.73;100.00;103916.31;5084310;28;20138;-75
2022/03/19 07:51:05;;;;;;;24.75;11.32;;;;;;;7.76;100.00;103912.94;5086390;28;20052;-76
2022/03/19 07:53:31;;;;;;;26.13;10.43;;;;;;;7.82;100.00;103909.81;5085892;28;20079;-77
2022/03/19 07:55:58;;;;;;;20.30;8.20;;;;;;;7.92;100.00;103911.56;5087738;28;20105;-74
2022/03/19 07:58:25;;;;;;;25.90;9.73;;;;;;;7.98;100.00;103904.84;5086936;28;20180;-73
2022/03/19 08:00:51;;;;;;;27.90;10.25;;;;;;;8.07;100.00;103910.47;5088217;28;20052;-74
2022/03/19 08:03:19;;;;;;;27.58;8.30;;;;;;;8.13;100.00;103918.34;5086772;28;20075;-76
2022/03/19 08:05:47;;;;;;;25.88;10.57;;;;;;;8.19;100.00;103908.03;5085044;28;20083;-75
2022/03/19 08:08:13;;;;;;;23.85;10.05;;;;;;;8.28;100.00;103917.28;5079579;28;20138;-74
2022/03/19 08:10:41;;;;;;;31.38;8.73;;;;;;;8.39;100.00;103919.53;5085843;28;20430;-76
2022/03/19 08:13:09;;;;;;;15.30;5.45;;;;;;;8.46;100.00;103908.06;5084092;28;20131;-74
2022/03/19 08:15:39;;;;;;;22.65;9.13;;;;;;;8.55;100.00;103918.13;5087686;28;20079;-74
2022/03/19 08:18:06;;;;;;;26.42;10.93;;;;;;;8.65;100.00;103917.91;5075869;28;20591;-76
2022/03/19 08:20:33;;;;;;;30.90;9.45;;;;;;;8.80;100.00;103914.00;5085515;28;20128;-76
2022/03/19 08:22:59;;;;;;;22.83;9.90;;;;;;;8.86;100.00;103921.88;5083968;28;20072;-74
2022/03/19 08:25:26;;;;;;;23.90;9.85;;;;;;;8.93;100.00;103916.75;5082598;28;20052;-73
2022/03/19 08:27:54;;;;;;;22.63;9.70;;;;;;;9.00;100.00;103925.44;5081248;28;20079;-74
2022/03/19 08:30:21;;;;;;;25.20;9.05;;;;;;;9.12;99.46;103922.13;5082970;28;20044;-75
2022/03/19 08:32:47;;;;;;;25.10;10.23;;;;;;;9.18;97.38;103924.47;5083722;28;20715;-77
2022/03/19 08:35:14;;;;;;;25.00;10.35;;;;;;;9.22;96.98;103917.19;5081979;28;20528;-73
2022/03/19 08:37:45;;;;;;;24.10;7.80;;;;;;;9.31;93.68;103931.06;5079804;28;20058;-73
2022/03/19 08:40:18;;;;;;;27.27;9.88;;;;;;;9.38;92.24;103921.22;5080149;28;20063;-74
2022/03/19 08:42:53;;;;;;;19.08;8.27;;;;;;;9.46;90.42;103926.03;5077735;28;21658;-74
2022/03/19 08:45:21;;;;;;;23.35;9.90;;;;;;;9.49;88.42;103924.59;5077746;28;20097;-73
2022/03/19 08:47:48;;;;;;;20.58;9.23;;;;;;;9.54;86.88;103914.22;5084020;28;20076;-74
2022/03/19 08:50:15;;;;;;;25.55;8.52;;;;;;;9.69;87.74;103913.03;5081440;28;20434;-73
2022/03/19 08:52:42;;;;;;;19.48;6.03;;;;;;;9.74;84.37;103902.66;5084363;28;20142;-74
2022/03/19 08:55:09;;;;;;;13.82;4.38;;;;;;;9.78;81.81;103898.13;5086465;28;20071;-73
2022/03/19 08:57:36;;;;;;;11.80;6.07;;;;;;;9.85;78.42;103908.72;5083878;28;20056;-74
2022/03/19 09:00:05;;;;;;;12.85;4.45;;;;;;;9.93;76.95;103905.22;5087398;28;20127;-75
2022/03/19 09:02:40;;;;;;;20.17;8.13;;;;;;;10.03;78.86;103897.44;5084344;28;20048;-69
2022/03/19 09:05:07;;;;;;;14.63;6.40;;;;;;;10.17;76.22;103894.63;5085488;28;20099;-74
2022/03/19 09:07:33;;;;;;;23.23;7.70;;;;;;;10.22;76.01;103886.19;5083436;28;20500;-73
2022/03/19 09:10:00;;;;;;;13.55;5.47;;;;;;;10.34;74.68;103895.53;5084213;28;20142;-68
2022/03/19 09:12:32;;;;;;;19.30;7.00;;;;;;;10.43;74.21;103892.81;5085339;28;20040;-69
2022/03/19 09:14:59;;;;;;;12.02;3.38;;;;;;;10.46;71.69;103875.53;5087026;28;20159;-72
2022/03/19 09:17:26;;;;;;;22.55;7.38;;;;;;;10.60;72.21;103880.97;5087290;28;20874;-73
2022/03/19 09:19:52;;;;;;;28.60;7.63;;;;;;;10.71;72.08;103872.03;5087682;28;20047;-74
2022/03/19 09:22:19;;;;;;;17.27;5.75;;;;;;;10.83;70.59;103879.72;5084415;28;20085;-74
2022/03/19 09:24:46;;;;;;;11.00;4.22;;;;;;;10.88;66.42;103879.56;5085802;28;20052;-72
2022/03/19 09:27:12;;;;;;;14.95;5.13;;;;;;;10.91;61.88;103865.06;5083479;28;20070;-71
2022/03/19 09:29:39;;;;;;;15.07;3.70;;;;;;;10.96;61.23;103871.25;5087580;28;20087;-71
2022/03/19 09:32:06;;;;;;;8.02;3.35;;;;;;;11.02;57.46;103869.97;5083130;28;20048;-75
2022/03/19 09:34:32;;;;;;;14.90;4.40;;;;;;;11.06;56.61;103868.16;5082482;28;20588;-73
2022/03/19 09:36:59;;;;;;;16.08;5.13;;;;;;;11.14;54.60;103870.13;5086333;28;20056;-71
2022/03/19 09:39:27;;;;;;;10.65;3.38;;;;;;;11.28;55.39;103865.25;5082069;28;20097;-72
2022/03/19 09:41:55;;;;;;;14.10;3.83;;;;;;;11.39;52.96;103855.44;5082721;28;20217;-72
2022/03/19 09:44:26;;;;;;;6.50;2.35;;;;;;;11.50;50.73;103847.59;5067233;28;20086;-76
2022/03/19 09:46:53;;;;;;;5.85;2.30;;;;;;;11.64;49.35;103853.81;5069279;28;20047;-77
2022/03/19 09:49:20;;;;;;;12.88;3.45;;;;;;;11.74;49.95;103856.25;5067397;28;20110;-73
2022/03/19 09:51:53;;;;;;;11.68;3.53;;;;;;;11.84;48.37;103855.88;5068092;28;20056;-74
2022/03/19 09:54:22;;;;;;;6.15;2.40;;;;;;;11.88;48.61;103852.09;5052603;28;20117;-77
2022/03/19 09:56:50;;;;;;;14.02;3.83;;;;;;;11.98;47.96;103842.63;5068607;28;20459;-74
2022/03/19 09:59:17;;;;;;;8.45;2.85;;;;;;;12.03;46.95;103839.66;5068022;28;20055;-75
2022/03/19 10:01:45;;;;;;;12.10;3.40;;;;;;;12.17;46.21;103840.25;5067765;28;20137;-72
2022/03/19 10:04:15;;;;;;;11.20;3.20;;;;;;;12.35;46.89;103834.28;5068644;28;20048;-74
2022/03/19 10:09:47;;;;;;;3.15;1.80;;;;;;;12.71;45.16;103825.41;5065959;28;20059;-67
2022/03/19 10:12:22;;;;;;;2.63;1.50;;;;;;;12.77;42.67;103832.41;5069988;28;20218;-73
2022/03/19 10:14:54;;;;;;;5.63;2.45;;;;;;;12.76;42.27;103836.34;5071484;28;20105;-74
2022/03/19 10:17:31;;;;;;;12.95;3.70;;;;;;;12.77;43.12;103827.66;5068294;28;20462;-75
2022/03/19 10:20:11;;;;;;;7.68;2.83;;;;;;;12.81;43.04;103825.00;5090319;28;20056;-74
2022/03/19 10:22:43;;;;;;;5.82;2.53;;;;;;;12.88;43.22;103817.78;5086234;28;20147;-71
2022/03/19 10:25:12;;;;;;;12.93;3.55;;;;;;;12.97;43.24;103818.50;5081282;28;20576;-75
2022/03/19 10:27:42;;;;;;;5.60;1.60;;;;;;;12.97;42.24;103817.69;5087942;28;20112;-71
2022/03/19 10:30:19;;;;;;;11.63;2.95;;;;;;;13.02;42.96;103807.22;5091896;28;20453;-74
2022/03/19 10:32:51;;;;;;;10.23;2.42;;;;;;;13.14;43.35;103812.03;5092609;28;20059;-71
2022/03/19 10:35:32;;;;;;;12.23;2.70;;;;;;;13.21;41.09;103814.25;5081946;28;20052;-73
2022/03/19 10:38:03;;;;;;;11.00;2.67;;;;;;;13.22;39.63;103797.22;5084923;28;20071;-73
2022/03/19 10:40:41;;;;;;;6.88;1.60;;;;;;;13.35;38.33;103779.41;5093728;28;20051;-74
2022/03/19 10:43:09;;;;;;;5.18;2.13;;;;;;;13.35;36.83;103795.28;5087222;28;20051;-74
2022/03/19 10:45:45;;;;;;;5.10;2.03;;;;;;;13.41;37.17;103789.19;5088594;28;20188;-74
2022/03/19 10:48:12;;;;;;;5.53;2.30;;;;;;;13.56;38.57;103782.16;5080590;28;20051;-73
2022/03/19 10:50:41;;;;;;;5.38;2.30;;;;;;;13.62;38.13;103787.16;5086563;28;20437;-73
2022/03/19 10:53:08;;;;;;;6.82;2.58;;;;;;;13.74;38.56;103778.81;5078978;28;20089;-72
2022/03/19 10:55:34;;;;;;;10.82;2.95;;;;;;;13.94;37.66;103763.19;5093810;28;20051;-75
2022/03/19 10:58:02;;;;;;;6.40;2.10;;;;;;;14.06;37.82;103766.78;5080271;28;20050;-72
2022/03/19 11:00:28;;;;;;;7.60;2.10;;;;;;;14.18;37.11;103768.75;5092354;28;20748;-75
2022/03/19 11:03:03;;;;;;;11.45;2.38;;;;;;;14.41;37.87;103761.56;5095952;28;20048;-73
2022/03/19 11:05:36;;;;;;;7.07;2.08;;;;;;;14.49;36.82;103757.84;5072486;28;20056;-73
2022/03/19 11:08:07;;;;;;;8.82;2.55;;;;;;;14.62;35.55;103746.28;5098442;28;20058;-73
2022/03/19 11:10:40;;;;;;;5.30;1.88;;;;;;;14.76;35.25;103754.28;5086233;28;20056;-73
2022/03/19 11:13:12;;;;;;;9.65;2.35;;;;;;;14.83;36.22;103744.16;5088042;28;20044;-74
2022/03/19 11:15:39;;;;;;;12.18;3.13;;;;;;;15.12;36.29;103743.00;5089850;28;20093;-72
2022/03/19 11:18:07;;;;;;;4.18;1.50;;;;;;;15.24;34.75;103743.75;5087785;28;20484;-72
2022/03/19 11:20:35;;;;;;;3.10;1.33;;;;;;;15.24;33.15;103720.59;5090244;28;20079;-72
2022/03/19 11:23:04;;;;;;;8.68;2.40;;;;;;;15.38;33.23;103743.34;5089460;28;20079;-74
2022/03/19 11:25:45;;;;;;;10.32;2.55;;;;;;;15.41;33.53;103723.91;5085984;28;20508;-73
2022/03/19 11:28:13;;;;;;;2.58;1.45;;;;;;;15.29;33.10;103703.63;5084382;28;20044;-74
2022/03/19 11:30:45;;;;;;;8.35;2.50;;;;;;;15.50;34.08;103709.78;5084317;28;20579;-74
2022/03/19 11:33:14;;;;;;;10.90;2.92;;;;;;;15.87;34.15;103701.94;5084465;28;20047;-74
2022/03/19 11:35:48;;;;;;;8.55;3.00;;;;;;;16.00;33.91;103692.28;5078752;28;20055;-78